Capt. Jerry J. Wiltz — WDG4175 — position and weather

sailwx.info

Track history (hours):
 
Tides and Currents Weather Stations Pressure Air Temp Water Temp Dewpoint Dewpoint Depression Visibility Wind Speed Wind Dir Waves Ship Positions

Capt. Jerry J. Wiltz

Owner: Florida Marine, LLC, Mandeville, LA. More information available from US FCC via Universal Licensing System and Coast Guard Vessel Documentation Center.

Last reported at 2018-May-20 16:31 UTC. Time now 2018-May-20 17:50 UTC.
Position N 29°56' W 093°06'.

Length 27 m; draft 3.1 m.

Type: Towing. MMSI: 367533780.

Date/timePositionNaut miles runAvg speedWind from/ knotsBaromVisibWave heightAir tempDewpointWater temp
2018-May-20 16:31N 29°56' W 093°06'0 2.4
2018-May-20 16:28N 29°56' W 093°07'2 3.6
2018-May-20 16:00N 29°56' W 093°08'2 4.0
2018-May-20 15:30N 29°57' W 093°10'2 4.0
2018-May-20 15:00N 29°59' W 093°12'2 4.3
2018-May-20 14:30N 30°00' W 093°14'2 3.2
2018-May-20 13:59N 30°02' W 093°15'1 3.1
2018-May-20 13:30N 30°03' W 093°16'2 4.2
2018-May-20 13:00N 30°05' W 093°17'1 2.5
2018-May-20 12:28N 30°05' W 093°18'1 1.2
2018-May-20 11:58N 30°06' W 093°18'1 1.1
2018-May-20 11:30N 30°06' W 093°19'2 4.6
2018-May-20 11:00N 30°04' W 093°21'2 4.0
2018-May-20 10:30N 30°04' W 093°23'2 4.8
2018-May-20 10:00N 30°04' W 093°26'2 4.8
2018-May-20 09:30N 30°04' W 093°28'2 4.7
2018-May-20 09:00N 30°04' W 093°31'8 4.3
2018-May-20 07:11N 30°04' W 093°40'1 4.4
2018-May-20 06:59N 30°04' W 093°41'2 4.2
2018-May-20 06:30N 30°03' W 093°43'2 3.5
2018-May-20 06:01N 30°02' W 093°44'2 4.3
2018-May-20 05:30N 30°00' W 093°46'2 4.8
2018-May-20 05:00N 29°59' W 093°49'2 4.9
2018-May-20 04:31N 29°58' W 093°51'2 4.0
2018-May-20 04:00N 29°59' W 093°54'3 6.0
2018-May-20 03:30N 29°60' W 093°57'2 4.0
2018-May-20 03:00N 30°01' W 093°59'0 0.3
2018-May-20 02:30N 30°01' W 093°59'0 0.0
2018-May-20 01:58N 30°01' W 093°59'0 0.0
2018-May-20 01:27N 30°01' W 093°59'0 0.0
2018-May-20 00:58N 30°01' W 093°59'0 0.0
2018-May-20 00:27N 30°01' W 093°59'0 0.0
2018-May-20 00:01N 30°01' W 093°59'0 0.0
2018-May-19 23:27N 30°01' W 093°59'0 0.0
2018-May-19 22:58N 30°01' W 093°59'0 0.0
2018-May-19 22:30N 30°01' W 093°59'0 0.0
2018-May-19 21:57N 30°01' W 093°59'0 0.0
2018-May-19 21:31N 30°01' W 093°59'0 0.0
2018-May-19 21:01N 30°01' W 093°59'0 0.0
2018-May-19 20:31N 30°01' W 093°59'0 0.0
2018-May-19 20:01N 30°01' W 093°59'0 0.0
2018-May-19 19:30N 30°01' W 093°59'0 0.0
2018-May-19 19:01N 30°01' W 093°59'0 0.0
2018-May-19 18:31N 30°01' W 093°59'0 0.0
2018-May-19 17:59N 30°01' W 093°59'0 0.0
2018-May-19 17:29N 30°01' W 093°59'0 0.0
2018-May-19 17:00N 30°01' W 093°59'0 0.0
2018-May-19 16:28N 30°01' W 093°59'0 0.0
2018-May-19 15:57N 30°01' W 093°59'0 0.0
2018-May-19 15:28N 30°01' W 093°59'0 0.0
2018-May-19 15:00N 30°01' W 093°59'0 0.0
2018-May-19 14:29N 30°01' W 093°59'0 0.0
2018-May-19 13:53N 30°01' W 093°59'0 0.0
2018-May-19 13:28N 30°01' W 093°59'0 0.0
2018-May-19 13:00N 30°01' W 093°59'0 0.0
2018-May-19 12:25N 30°01' W 093°59'0 0.0
2018-May-19 11:58N 30°01' W 093°59'0 0.0
2018-May-19 11:30N 30°01' W 093°59'0 0.0
2018-May-19 10:56N 30°01' W 093°59'0 0.0
2018-May-19 10:30N 30°01' W 093°59'1 1.0
2018-May-19 10:00N 30°01' W 093°59'0 0.3
2018-May-19 09:30N 30°01' W 093°59'0 0.0
2018-May-19 09:00N 30°01' W 093°59'0 0.0
2018-May-19 08:30N 30°01' W 093°59'0 0.0
2018-May-19 08:00N 30°01' W 093°59'0 0.0
2018-May-19 07:29N 30°01' W 093°59'0 0.0
2018-May-19 07:00N 30°01' W 093°59'0 0.0
2018-May-19 06:30N 30°01' W 093°59'0 0.0
2018-May-19 06:00N 30°01' W 093°59'0 0.0
2018-May-19 05:30N 30°01' W 093°59'0 0.0
2018-May-19 05:00N 30°01' W 093°59'0 0.0
2018-May-19 04:29N 30°01' W 093°59'0 0.0
2018-May-19 04:00N 30°01' W 093°59'0 0.0
2018-May-19 03:30N 30°01' W 093°59'0 0.0
2018-May-19 03:00N 30°01' W 093°59'0 0.0
2018-May-19 02:30N 30°01' W 093°59'0 0.1
2018-May-19 02:00N 30°01' W 093°59'2 3.1
2018-May-19 01:30N 30°00' W 093°57'2 4.5
2018-May-19 01:00N 29°59' W 093°55'3 5.5
2018-May-19 00:30N 29°59' W 093°52'2 4.0
2018-May-19 00:00N 29°59' W 093°50'3 5.5
2018-May-18 23:30N 29°60' W 093°47'0 0.2
2018-May-18 23:00N 29°60' W 093°47'3 5.0
2018-May-18 22:30N 30°01' W 093°44'3 5.1
2018-May-18 21:57N 30°03' W 093°42'3 5.9
2018-May-18 21:30N 30°04' W 093°39'3 5.9
2018-May-18 20:58N 30°04' W 093°35'3 5.7
2018-May-18 20:30N 30°04' W 093°32'3 5.9
2018-May-18 20:00N 30°04' W 093°29'3 5.9
2018-May-18 19:30N 30°04' W 093°25'3 5.5
2018-May-18 19:00N 30°04' W 093°22'2 4.6
2018-May-18 18:30N 30°05' W 093°20'2 3.8
2018-May-18 18:00N 30°06' W 093°18'1 1.7
2018-May-18 17:30N 30°05' W 093°17'1 1.5
2018-May-18 17:00N 30°05' W 093°17'0 0.5
2018-May-18 16:30N 30°04' W 093°16'3 5.0
2018-May-18 16:00N 30°02' W 093°15'3 5.3
2018-May-18 15:30N 29°60' W 093°13'1 1.5
2018-May-18 15:00N 29°59' W 093°13'2 4.0
2018-May-18 14:30N 29°58' W 093°11'12 5.7
2018-May-18 12:23N 29°56' W 092°58'3 3.0
2018-May-18 11:30N 29°56' W 092°55'2 4.8
2018-May-18 11:00N 29°57' W 092°52'3 5.9
2018-May-18 10:30N 29°58' W 092°49'2 4.3
2018-May-18 10:00N 29°58' W 092°46'2 4.6
2018-May-18 09:30N 29°58' W 092°44'1 2.6
2018-May-18 09:00N 29°57' W 092°42'2 4.1
2018-May-18 08:30N 29°56' W 092°40'3 3.7
2018-May-18 07:46N 29°55' W 092°37'7 4.7
2018-May-18 06:11N 29°54' W 092°29'10 4.5
2018-May-18 03:52N 29°50' W 092°18'  
2018-May-14 09:33N 30°29' W 091°45'  
Track history (hours):
 
Tides and Currents Weather Stations Pressure Air Temp Water Temp Dewpoint Dewpoint Depression Visibility Wind Speed Wind Dir Waves Ship Positions

Capt. Jerry J. Wiltz

Owner: Florida Marine, LLC, Mandeville, LA. More information available from US FCC via Universal Licensing System and Coast Guard Vessel Documentation Center.

Last reported at 2018-May-20 16:31 UTC. Time now 2018-May-20 17:50 UTC.
Position N 29°56' W 093°06'.

Length 27 m; draft 3.1 m.

Type: Towing. MMSI: 367533780.

Date/timePositionNaut miles runAvg speedWind from/ knotsBaromVisibWave heightAir tempDewpointWater temp
2018-May-20 16:31N 29°56' W 093°06'0 2.4
2018-May-20 16:28N 29°56' W 093°07'2 3.6
2018-May-20 16:00N 29°56' W 093°08'2 4.0
2018-May-20 15:30N 29°57' W 093°10'2 4.0
2018-May-20 15:00N 29°59' W 093°12'2 4.3
2018-May-20 14:30N 30°00' W 093°14'2 3.2
2018-May-20 13:59N 30°02' W 093°15'1 3.1
2018-May-20 13:30N 30°03' W 093°16'2 4.2
2018-May-20 13:00N 30°05' W 093°17'1 2.5
2018-May-20 12:28N 30°05' W 093°18'1 1.2
2018-May-20 11:58N 30°06' W 093°18'1 1.1
2018-May-20 11:30N 30°06' W 093°19'2 4.6
2018-May-20 11:00N 30°04' W 093°21'2 4.0
2018-May-20 10:30N 30°04' W 093°23'2 4.8
2018-May-20 10:00N 30°04' W 093°26'2 4.8
2018-May-20 09:30N 30°04' W 093°28'2 4.7
2018-May-20 09:00N 30°04' W 093°31'8 4.3
2018-May-20 07:11N 30°04' W 093°40'1 4.4
2018-May-20 06:59N 30°04' W 093°41'2 4.2
2018-May-20 06:30N 30°03' W 093°43'2 3.5
2018-May-20 06:01N 30°02' W 093°44'2 4.3
2018-May-20 05:30N 30°00' W 093°46'2 4.8
2018-May-20 05:00N 29°59' W 093°49'2 4.9
2018-May-20 04:31N 29°58' W 093°51'2 4.0
2018-May-20 04:00N 29°59' W 093°54'3 6.0
2018-May-20 03:30N 29°60' W 093°57'2 4.0
2018-May-20 03:00N 30°01' W 093°59'0 0.3
2018-May-20 02:30N 30°01' W 093°59'0 0.0
2018-May-20 01:58N 30°01' W 093°59'0 0.0
2018-May-20 01:27N 30°01' W 093°59'0 0.0
2018-May-20 00:58N 30°01' W 093°59'0 0.0
2018-May-20 00:27N 30°01' W 093°59'0 0.0
2018-May-20 00:01N 30°01' W 093°59'0 0.0
2018-May-19 23:27N 30°01' W 093°59'0 0.0
2018-May-19 22:58N 30°01' W 093°59'0 0.0
2018-May-19 22:30N 30°01' W 093°59'0 0.0
2018-May-19 21:57N 30°01' W 093°59'0 0.0
2018-May-19 21:31N 30°01' W 093°59'0 0.0
2018-May-19 21:01N 30°01' W 093°59'0 0.0
2018-May-19 20:31N 30°01' W 093°59'0 0.0
2018-May-19 20:01N 30°01' W 093°59'0 0.0
2018-May-19 19:30N 30°01' W 093°59'0 0.0
2018-May-19 19:01N 30°01' W 093°59'0 0.0
2018-May-19 18:31N 30°01' W 093°59'0 0.0
2018-May-19 17:59N 30°01' W 093°59'0 0.0
2018-May-19 17:29N 30°01' W 093°59'0 0.0
2018-May-19 17:00N 30°01' W 093°59'0 0.0
2018-May-19 16:28N 30°01' W 093°59'0 0.0
2018-May-19 15:57N 30°01' W 093°59'0 0.0
2018-May-19 15:28N 30°01' W 093°59'0 0.0
2018-May-19 15:00N 30°01' W 093°59'0 0.0
2018-May-19 14:29N 30°01' W 093°59'0 0.0
2018-May-19 13:53N 30°01' W 093°59'0 0.0
2018-May-19 13:28N 30°01' W 093°59'0 0.0
2018-May-19 13:00N 30°01' W 093°59'0 0.0
2018-May-19 12:25N 30°01' W 093°59'0 0.0
2018-May-19 11:58N 30°01' W 093°59'0 0.0
2018-May-19 11:30N 30°01' W 093°59'0 0.0
2018-May-19 10:56N 30°01' W 093°59'0 0.0
2018-May-19 10:30N 30°01' W 093°59'1 1.0
2018-May-19 10:00N 30°01' W 093°59'0 0.3
2018-May-19 09:30N 30°01' W 093°59'0 0.0
2018-May-19 09:00N 30°01' W 093°59'0 0.0
2018-May-19 08:30N 30°01' W 093°59'0 0.0
2018-May-19 08:00N 30°01' W 093°59'0 0.0
2018-May-19 07:29N 30°01' W 093°59'0 0.0
2018-May-19 07:00N 30°01' W 093°59'0 0.0
2018-May-19 06:30N 30°01' W 093°59'0 0.0
2018-May-19 06:00N 30°01' W 093°59'0 0.0
2018-May-19 05:30N 30°01' W 093°59'0 0.0
2018-May-19 05:00N 30°01' W 093°59'0 0.0
2018-May-19 04:29N 30°01' W 093°59'0 0.0
2018-May-19 04:00N 30°01' W 093°59'0 0.0
2018-May-19 03:30N 30°01' W 093°59'0 0.0
2018-May-19 03:00N 30°01' W 093°59'0 0.0
2018-May-19 02:30N 30°01' W 093°59'0 0.1
2018-May-19 02:00N 30°01' W 093°59'2 3.1
2018-May-19 01:30N 30°00' W 093°57'2 4.5
2018-May-19 01:00N 29°59' W 093°55'3 5.5
2018-May-19 00:30N 29°59' W 093°52'2 4.0
2018-May-19 00:00N 29°59' W 093°50'3 5.5
2018-May-18 23:30N 29°60' W 093°47'0 0.2
2018-May-18 23:00N 29°60' W 093°47'3 5.0
2018-May-18 22:30N 30°01' W 093°44'3 5.1
2018-May-18 21:57N 30°03' W 093°42'3 5.9
2018-May-18 21:30N 30°04' W 093°39'3 5.9
2018-May-18 20:58N 30°04' W 093°35'3 5.7
2018-May-18 20:30N 30°04' W 093°32'3 5.9
2018-May-18 20:00N 30°04' W 093°29'3 5.9
2018-May-18 19:30N 30°04' W 093°25'3 5.5
2018-May-18 19:00N 30°04' W 093°22'2 4.6
2018-May-18 18:30N 30°05' W 093°20'2 3.8
2018-May-18 18:00N 30°06' W 093°18'1 1.7
2018-May-18 17:30N 30°05' W 093°17'1 1.5
2018-May-18 17:00N 30°05' W 093°17'0 0.5
2018-May-18 16:30N 30°04' W 093°16'3 5.0
2018-May-18 16:00N 30°02' W 093°15'3 5.3
2018-May-18 15:30N 29°60' W 093°13'1 1.5
2018-May-18 15:00N 29°59' W 093°13'2 4.0
2018-May-18 14:30N 29°58' W 093°11'12 5.7
2018-May-18 12:23N 29°56' W 092°58'3 3.0
2018-May-18 11:30N 29°56' W 092°55'2 4.8
2018-May-18 11:00N 29°57' W 092°52'3 5.9
2018-May-18 10:30N 29°58' W 092°49'2 4.3
2018-May-18 10:00N 29°58' W 092°46'2 4.6
2018-May-18 09:30N 29°58' W 092°44'1 2.6
2018-May-18 09:00N 29°57' W 092°42'2 4.1
2018-May-18 08:30N 29°56' W 092°40'3 3.7
2018-May-18 07:46N 29°55' W 092°37'7 4.7
2018-May-18 06:11N 29°54' W 092°29'10 4.5
2018-May-18 03:52N 29°50' W 092°18'  
2018-May-14 09:33N 30°29' W 091°45'  

Dump ship's entire track history